Time;durP1;ratioP1;P1;durP2;ratioP2;P2;SDS_P1;SDS_P2;PMS_P1;PMS_P2;Temp;Humidity;BMP_temperature;BMP_pressure;BME280_temperature;BME280_humidity;BME280_pressure;Samples;Min_cycle;Max_cycle;Signal;HPM_P1;HPM_P2
2022/06/02 00:01:09;;;;;;;7.47;4.28;;;10.10;99.90;;;;;;4230598;28;20138;-84
2022/06/02 00:03:28;;;;;;;7.63;4.50;;;10.20;99.90;;;;;;4230643;28;20047;-84
2022/06/02 00:05:34;;;;;;;;;;;10.20;99.90;;;;;;4249075;27;20054;-84
2022/06/02 00:07:55;;;;;;;8.02;3.83;;;10.10;99.90;;;;;;4248141;27;19923;-84
2022/06/02 00:10:30;;;;;;;5.53;3.80;;;10.20;99.90;;;;;;4248597;27;20489;-84
2022/06/02 00:12:47;;;;;;;8.98;4.22;;;10.10;99.90;;;;;;4248550;27;20416;-84
2022/06/02 00:15:18;;;;;;;5.97;4.35;;;10.10;99.90;;;;;;4248303;27;20074;-84
2022/06/02 00:17:25;;;;;;;9.45;4.60;;;10.10;99.90;;;;;;4248411;27;20055;-84
2022/06/02 00:19:38;;;;;;;6.93;4.53;;;10.00;99.90;;;;;;4248773;27;20112;-84
2022/06/02 00:21:46;;;;;;;7.53;5.10;;;10.00;99.90;;;;;;4248059;27;20051;-83
2022/06/02 00:24:06;;;;;;;8.15;5.30;;;10.00;99.90;;;;;;4229987;28;20070;-84
2022/06/02 00:26:25;;;;;;;8.00;4.95;;;10.00;99.90;;;;;;4248338;27;20059;-84
2022/06/02 00:28:47;;;;;;;8.57;4.65;;;9.90;99.90;;;;;;4212500;28;20338;-84
2022/06/02 00:31:13;;;;;;;7.72;4.93;;;9.90;99.90;;;;;;4248201;27;20160;-83
2022/06/02 00:33:46;;;;;;;7.43;4.40;;;9.90;99.90;;;;;;4248228;27;20506;-84
2022/06/02 00:35:57;;;;;;;7.88;4.90;;;9.80;99.90;;;;;;4234344;27;20047;-84
2022/06/02 00:38:03;;;;;;;8.43;4.47;;;9.80;99.90;;;;;;4248106;27;20054;-83
2022/06/02 00:40:07;;;;;;;8.98;5.57;;;9.80;99.90;;;;;;4229666;28;20472;-83
2022/06/02 00:42:26;;;;;;;8.45;4.93;;;9.80;99.90;;;;;;4247372;27;20046;-84
2022/06/02 00:44:39;;;;;;;7.90;5.25;;;9.70;99.90;;;;;;4248006;27;20211;-84
2022/06/02 00:47:04;;;;;;;7.82;5.28;;;9.70;99.90;;;;;;4247670;27;20051;-84
2022/06/02 00:49:08;;;;;;;7.25;4.55;;;9.70;99.90;;;;;;4247940;27;20432;-83
2022/06/02 00:51:14;;;;;;;12.80;5.28;;;9.70;99.90;;;;;;4248071;27;20046;-84
2022/06/02 00:53:27;;;;;;;8.82;4.78;;;9.70;99.90;;;;;;4247498;27;20051;-84
2022/06/02 00:58:09;;;;;;;8.98;4.70;;;9.70;99.90;;;;;;4212767;27;20510;-84
2022/06/02 01:00:21;;;;;;;7.93;5.07;;;9.70;99.90;;;;;;4247865;27;20035;-84
2022/06/02 01:02:23;;;;;;;9.10;4.97;;;9.60;99.90;;;;;;4212887;28;20424;-84
2022/06/02 01:04:26;;;;;;;7.75;5.13;;;9.60;99.90;;;;;;4247372;27;20118;-83
2022/06/02 01:06:33;;;;;;;9.23;4.85;;;9.60;99.90;;;;;;4247802;27;20183;-84
2022/06/02 01:08:42;;;;;;;9.02;5.68;;;9.60;99.90;;;;;;4247537;27;20395;-84
2022/06/02 01:10:54;;;;;;;8.25;4.93;;;9.60;99.90;;;;;;4229249;28;20059;-83
2022/06/02 01:12:57;;;;;;;8.38;5.40;;;9.60;99.90;;;;;;4247712;27;20049;-84
2022/06/02 01:15:16;;;;;;;8.63;5.38;;;9.60;99.90;;;;;;4247621;27;20043;-83
2022/06/02 01:17:33;;;;;;;7.80;4.90;;;9.50;99.90;;;;;;4247257;27;20568;-84
2022/06/02 01:19:52;;;;;;;10.75;5.10;;;9.50;99.90;;;;;;4247573;28;20503;-83
2022/06/02 01:22:02;;;;;;;;;;;9.50;99.90;;;;;;4247642;28;20048;-83
2022/06/02 01:24:14;;;;;;;8.13;4.53;;;9.40;99.90;;;;;;4247461;28;20006;-83
2022/06/02 01:26:33;;;;;;;11.10;5.38;;;9.40;99.90;;;;;;4229288;28;20128;-83
2022/06/02 01:28:53;;;;;;;;;;;9.40;99.90;;;;;;4247599;28;20092;-83
2022/06/02 01:31:32;;;;;;;7.13;4.55;;;9.30;99.90;;;;;;4247244;28;19972;-84
2022/06/02 01:33:35;;;;;;;8.27;5.10;;;9.30;99.90;;;;;;4162727;28;20096;-83
2022/06/02 01:36:03;;;;;;;10.73;5.85;;;9.30;99.90;;;;;;4229058;28;20051;-84
2022/06/02 01:38:25;;;;;;;8.15;4.97;;;9.30;99.90;;;;;;4229170;28;20047;-83
2022/06/02 01:40:50;;;;;;;10.35;5.30;;;9.30;99.90;;;;;;4247192;28;20564;-83
2022/06/02 01:43:25;;;;;;;11.88;5.50;;;9.20;99.90;;;;;;4247422;28;20441;-84
2022/06/02 01:45:56;;;;;;;9.60;5.22;;;9.30;99.90;;;;;;4247241;28;20118;-83
2022/06/02 01:48:15;;;;;;;9.23;5.38;;;9.20;99.90;;;;;;4247404;28;20068;-83
2022/06/02 01:50:40;;;;;;;9.20;5.07;;;9.20;99.90;;;;;;4228200;28;20101;-83
2022/06/02 01:52:50;;;;;;;11.63;4.43;;;9.20;99.90;;;;;;4247355;28;20047;-84
2022/06/02 01:55:21;;;;;;;7.10;4.95;;;9.20;99.90;;;;;;4247308;28;20036;-84
2022/06/02 01:57:50;;;;;;;27.75;5.35;;;9.20;99.90;;;;;;4247461;28;20047;-83
2022/06/02 02:00:11;;;;;;;5.80;4.03;;;9.10;99.90;;;;;;4247126;28;20047;-84
2022/06/02 02:02:18;;;;;;;9.27;5.10;;;9.10;99.90;;;;;;4247214;28;20445;-84
2022/06/02 02:04:48;;;;;;;9.70;5.32;;;9.10;99.90;;;;;;4247392;28;20039;-84
2022/06/02 02:07:41;;;;;;;7.25;4.32;;;9.10;99.90;;;;;;4229099;28;20052;-83
2022/06/02 02:10:07;;;;;;;8.30;4.63;;;9.00;99.90;;;;;;4178319;28;20049;-83
2022/06/02 02:12:21;;;;;;;13.15;5.90;;;9.00;99.90;;;;;;4239375;28;20103;-83
2022/06/02 02:14:21;;;;;;;7.25;4.35;;;9.00;99.90;;;;;;4246755;28;20035;-83
2022/06/02 02:16:59;;;;;;;7.65;4.45;;;9.00;99.90;;;;;;4247265;28;20050;-83
2022/06/02 02:19:09;;;;;;;6.80;4.82;;;9.00;99.90;;;;;;4247416;27;20095;-83
2022/06/02 02:21:16;;;;;;;8.70;4.65;;;9.00;99.90;;;;;;4249373;27;20047;-83
2022/06/02 02:23:41;;;;;;;8.57;4.53;;;8.90;99.90;;;;;;4250922;27;20055;-82
2022/06/02 02:25:50;;;;;;;7.47;4.30;;;8.90;99.90;;;;;;4249899;27;20046;-83
2022/06/02 02:28:28;;;;;;;8.20;4.60;;;8.90;99.90;;;;;;4250482;27;20047;-83
2022/06/02 02:30:43;;;;;;;9.45;4.63;;;8.90;99.90;;;;;;4250030;27;20043;-83
2022/06/02 02:33:02;;;;;;;7.38;4.70;;;8.90;99.90;;;;;;4250186;27;20503;-83
2022/06/02 02:35:28;;;;;;;8.25;4.50;;;8.90;99.90;;;;;;4250017;27;20039;-83
2022/06/02 02:37:43;;;;;;;7.50;4.00;;;8.90;99.90;;;;;;4231896;28;20108;-83
2022/06/02 02:40:21;;;;;;;4.45;3.33;;;8.90;99.90;;;;;;4249122;27;20078;-84
2022/06/02 02:42:51;;;;;;;8.25;4.22;;;8.80;99.90;;;;;;4239542;27;20116;-83
2022/06/02 02:45:23;;;;;;;7.15;4.15;;;8.90;99.90;;;;;;4249984;27;20043;-83
2022/06/02 02:47:36;;;;;;;9.32;4.55;;;8.90;99.90;;;;;;4249256;27;20039;-83
2022/06/02 02:49:46;;;;;;;7.85;4.40;;;8.90;99.90;;;;;;4250032;27;20082;-83
2022/06/02 02:52:27;;;;;;;6.38;3.88;;;8.90;99.90;;;;;;4249954;27;20058;-83
2022/06/02 02:54:40;;;;;;;12.00;3.95;;;8.90;99.90;;;;;;4214419;28;20044;-83
2022/06/02 02:56:53;;;;;;;7.30;3.80;;;8.90;99.90;;;;;;4231610;28;20466;-83
2022/06/02 02:59:35;;;;;;;6.85;3.33;;;8.90;99.90;;;;;;4249791;27;20411;-83
2022/06/02 03:01:46;;;;;;;6.72;3.17;;;8.90;99.90;;;;;;4248970;27;20107;-83
2022/06/02 03:04:06;;;;;;;6.97;3.35;;;8.90;99.90;;;;;;4249797;27;20542;-83
2022/06/02 03:06:20;;;;;;;8.13;3.58;;;9.00;99.90;;;;;;4249869;27;20099;-84
2022/06/02 03:08:55;;;;;;;5.57;2.97;;;9.00;99.90;;;;;;4230929;28;20044;-84
2022/06/02 03:11:09;;;;;;;7.28;3.55;;;9.00;99.90;;;;;;4201066;27;20444;-83
2022/06/02 03:13:35;;;;;;;6.15;3.63;;;9.00;99.90;;;;;;4249270;27;20511;-83
2022/06/02 03:15:47;;;;;;;8.77;3.83;;;9.00;99.90;;;;;;4249036;27;20043;-83
2022/06/02 03:18:30;;;;;;;5.30;2.88;;;9.00;99.90;;;;;;4230628;28;20146;-83
2022/06/02 03:20:54;;;;;;;7.22;3.13;;;9.00;99.90;;;;;;4200955;27;20043;-84
2022/06/02 03:23:10;;;;;;;6.40;3.80;;;9.00;99.90;;;;;;4249236;27;20043;-83
2022/06/02 03:25:26;;;;;;;4.10;3.03;;;9.00;99.90;;;;;;4248934;27;20043;-84
2022/06/02 03:27:54;;;;;;;5.88;3.58;;;9.10;99.90;;;;;;4248600;27;20233;-83
2022/06/02 03:30:04;;;;;;;8.18;3.70;;;9.00;99.90;;;;;;4248898;27;20082;-83
2022/06/02 03:32:28;;;;;;;6.32;3.35;;;9.10;99.90;;;;;;4249051;27;20047;-84
2022/06/02 03:35:02;;;;;;;5.50;3.22;;;9.00;99.90;;;;;;4249003;27;20118;-83
2022/06/02 03:37:21;;;;;;;5.30;3.17;;;9.10;99.90;;;;;;4249040;27;20043;-84
2022/06/02 03:39:45;;;;;;;;;;;9.10;99.90;;;;;;4249228;27;20051;-83
2022/06/02 03:42:06;;;;;;;6.25;3.63;;;9.10;99.90;;;;;;4248426;27;19919;-84
2022/06/02 03:44:19;;;;;;;6.50;3.40;;;9.00;99.90;;;;;;4248896;27;20045;-83
2022/06/02 03:46:44;;;;;;;8.52;4.03;;;9.10;99.90;;;;;;4249238;27;20566;-83
2022/06/02 03:49:16;;;;;;;5.35;3.38;;;9.10;99.90;;;;;;4249235;27;20506;-83
2022/06/02 03:51:35;;;;;;;8.30;3.38;;;9.00;99.90;;;;;;4248551;27;20058;-83
2022/06/02 03:53:45;;;;;;;7.43;3.47;;;9.10;99.90;;;;;;4249284;27;20035;-84
2022/06/02 03:56:04;;;;;;;8.98;4.32;;;9.10;99.90;;;;;;4248955;27;20491;-83
2022/06/02 03:58:10;;;;;;;5.75;3.70;;;9.00;99.90;;;;;;4248368;27;20121;-83
2022/06/02 04:00:40;;;;;;;4.47;3.40;;;9.00;99.90;;;;;;4248786;27;20107;-84
2022/06/02 04:02:54;;;;;;;4.90;3.47;;;9.00;99.90;;;;;;4200652;27;20054;-83
2022/06/02 04:05:15;;;;;;;5.45;3.20;;;9.10;99.90;;;;;;4249925;27;20054;-83
2022/06/02 04:07:36;;;;;;;8.10;4.05;;;9.10;99.90;;;;;;4249248;27;20495;-83
2022/06/02 04:09:55;;;;;;;8.57;3.97;;;9.10;99.90;;;;;;4249796;27;20047;-84
2022/06/02 04:15:03;;;;;;;6.68;3.28;;;9.10;99.90;;;;;;4249338;27;20403;-84
2022/06/02 04:17:26;;;;;;;5.45;2.90;;;9.20;99.90;;;;;;4200497;27;20522;-83
2022/06/02 04:22:34;;;;;;;7.82;3.30;;;9.20;99.90;;;;;;4249930;27;20055;-83
2022/06/02 04:24:47;;;;;;;6.30;3.25;;;9.20;99.90;;;;;;4249398;27;20051;-84
2022/06/02 04:27:17;;;;;;;7.13;3.47;;;9.20;99.90;;;;;;4248408;27;20044;-83
2022/06/02 04:29:41;;;;;;;7.22;3.10;;;9.20;99.90;;;;;;4247694;27;20035;-83
2022/06/02 04:32:06;;;;;;;4.25;3.20;;;9.20;99.90;;;;;;4248063;27;20039;-84
2022/06/02 04:34:25;;;;;;;5.07;3.00;;;9.20;99.90;;;;;;4247998;27;20043;-84
2022/06/02 04:36:45;;;;;;;;;;;9.30;99.90;;;;;;4248669;27;20387;-83
2022/06/02 04:39:09;;;;;;;4.35;2.65;;;9.30;99.90;;;;;;4229124;28;20343;-84
2022/06/02 04:41:20;;;;;;;7.05;2.65;;;9.40;99.90;;;;;;4229294;28;20099;-84
2022/06/02 04:43:56;;;;;;;4.95;3.00;;;9.40;99.90;;;;;;4247102;27;20491;-84
2022/06/02 04:46:20;;;;;;;4.00;2.80;;;9.40;99.90;;;;;;4232096;27;20043;-84
2022/06/02 04:48:24;;;;;;;5.85;2.83;;;9.50;99.90;;;;;;4230659;28;20095;-83
2022/06/02 04:50:39;;;;;;;5.85;2.90;;;9.50;99.90;;;;;;4230509;28;20074;-83
2022/06/02 04:52:39;;;;;;;6.25;3.25;;;9.50;99.90;;;;;;4241756;27;20483;-84
2022/06/02 04:54:57;;;;;;;4.13;3.10;;;9.60;99.90;;;;;;4230001;28;20035;-84
2022/06/02 04:57:27;;;;;;;3.97;2.75;;;9.70;99.90;;;;;;4234509;27;20054;-83
2022/06/02 04:59:30;;;;;;;5.70;2.72;;;9.70;99.90;;;;;;4247776;27;20108;-83
2022/06/02 05:02:04;;;;;;;4.15;2.90;;;9.80;99.90;;;;;;4247535;27;20440;-84
2022/06/02 05:04:19;;;;;;;4.40;2.80;;;9.90;99.90;;;;;;4246880;27;20043;-84
2022/06/02 05:06:29;;;;;;;3.80;2.63;;;9.90;99.90;;;;;;4248154;27;20039;-84
2022/06/02 05:09:27;;;;;;;6.22;3.20;;;10.00;99.90;;;;;;4248231;27;20551;-84
2022/06/02 05:11:54;;;;;;;4.65;2.60;;;10.10;99.90;;;;;;4177774;28;20124;-83
2022/06/02 05:14:23;;;;;;;5.82;2.85;;;10.20;99.90;;;;;;4178967;28;20155;-84
2022/06/02 05:16:46;;;;;;;5.63;3.28;;;10.30;99.90;;;;;;4198817;28;20130;-83
2022/06/02 05:19:08;;;;;;;5.32;3.00;;;10.30;99.90;;;;;;4230377;28;20051;-84
2022/06/02 05:21:41;;;;;;;3.97;2.30;;;10.50;99.90;;;;;;4229629;28;20138;-84
2022/06/02 05:24:19;;;;;;;4.18;2.85;;;10.50;99.90;;;;;;4229973;28;20165;-84
2022/06/02 05:26:20;;;;;;;4.88;2.58;;;10.60;99.90;;;;;;4230099;28;20075;-84
2022/06/02 05:28:49;;;;;;;4.75;2.55;;;10.70;99.90;;;;;;4230244;28;20062;-84
2022/06/02 05:31:02;;;;;;;4.50;2.90;;;10.80;99.90;;;;;;4229781;28;20046;-84
2022/06/02 05:33:23;;;;;;;6.50;2.80;;;10.80;99.90;;;;;;4232431;28;20158;-82
2022/06/02 05:35:35;;;;;;;6.63;2.60;;;10.90;99.90;;;;;;4236099;28;20377;-84
2022/06/02 05:38:00;;;;;;;5.30;3.05;;;11.00;99.90;;;;;;4244679;28;20384;-84
2022/06/02 05:40:38;;;;;;;7.88;3.35;;;11.10;99.90;;;;;;4248472;28;20058;-84
2022/06/02 05:42:53;;;;;;;6.15;2.70;;;11.10;99.90;;;;;;4231358;28;20511;-84
2022/06/02 05:45:24;;;;;;;4.80;2.67;;;11.20;99.90;;;;;;4231849;28;20395;-84
2022/06/02 05:47:39;;;;;;;5.38;2.50;;;11.30;99.90;;;;;;4231397;28;20055;-84
2022/06/02 05:49:57;;;;;;;3.33;2.40;;;11.30;99.90;;;;;;4230334;28;20089;-84
2022/06/02 05:52:01;;;;;;;6.28;2.53;;;11.40;99.90;;;;;;4230572;28;20073;-84
2022/06/02 05:54:11;;;;;;;5.18;2.50;;;11.50;99.90;;;;;;4245815;27;20118;-84
2022/06/02 05:56:14;;;;;;;2.80;2.00;;;11.50;99.90;;;;;;4250432;27;20541;-84
2022/06/02 05:58:50;;;;;;;4.43;2.08;;;11.60;99.90;;;;;;4250953;27;20043;-84
2022/06/02 06:01:24;;;;;;;6.20;2.20;;;11.70;99.90;;;;;;4250821;27;20059;-84
2022/06/02 06:03:49;;;;;;;4.30;1.80;;;11.80;99.90;;;;;;4251042;27;20498;-84
2022/06/02 06:06:02;;;;;;;6.72;2.03;;;11.90;99.90;;;;;;4250893;27;20399;-84
2022/06/02 06:08:25;;;;;;;4.82;1.75;;;12.00;99.90;;;;;;4252991;27;20058;-84
2022/06/02 06:10:29;;;;;;;3.05;1.70;;;;;;;;;;4250669;27;20086;-84
2022/06/02 06:12:51;;;;;;;2.67;1.95;;;;;;;;;;4250915;27;20580;-84
2022/06/02 06:14:52;;;;;;;3.00;1.52;;;12.10;99.90;;;;;;4253388;27;20440;-84
2022/06/02 06:17:09;;;;;;;3.67;1.70;;;12.40;99.90;;;;;;4251130;27;20043;-83
2022/06/02 06:19:15;;;;;;;3.25;1.77;;;12.40;99.90;;;;;;4254094;27;20039;-83
2022/06/02 06:21:36;;;;;;;3.45;1.60;;;12.50;99.90;;;;;;4252684;27;20059;-84
2022/06/02 06:24:09;;;;;;;3.20;1.48;;;12.60;99.90;;;;;;4215127;28;20084;-84
2022/06/02 06:26:30;;;;;;;3.70;1.60;;;12.70;99.90;;;;;;4255406;27;20920;-85
2022/06/02 06:28:42;;;;;;;3.25;1.60;;;12.80;99.90;;;;;;4254764;27;20164;-84
2022/06/02 06:31:02;;;;;;;3.95;2.22;;;;;;;;;;4257000;27;20071;-84
2022/06/02 06:33:22;;;;;;;4.78;1.42;;;;;;;;;;4262010;27;20039;-84
2022/06/02 06:35:29;;;;;;;4.75;1.50;;;;;;;;;;4260730;27;20065;-84
2022/06/02 06:37:39;;;;;;;4.43;1.60;;;;;;;;;;4243303;28;20521;-84
2022/06/02 06:39:40;;;;;;;5.45;1.42;;;;;;;;;;4261360;27;20072;-84
2022/06/02 06:41:44;;;;;;;5.30;1.88;;;;;;;;;;4261995;27;20043;-84
2022/06/02 06:44:14;;;;;;;2.50;1.40;;;;;;;;;;4227219;28;20044;-84
2022/06/02 06:46:15;;;;;;;4.55;2.10;;;;;;;;;;4237714;27;20054;-84
2022/06/02 06:48:34;;;;;;;4.30;1.80;;;;;;;;;;4255088;27;20039;-84
2022/06/02 06:51:01;;;;;;;5.28;1.40;;;12.80;99.90;;;;;;4253971;27;20046;-84
2022/06/02 06:53:27;;;;;;;2.00;1.58;;;13.70;99.90;;;;;;4253356;27;20043;-84
2022/06/02 06:55:39;;;;;;;4.78;1.50;;;;;;;;;;4252179;27;20475;-84
2022/06/02 06:57:40;;;;;;;4.40;1.35;;;;;;;;;;4251314;27;20087;-84
2022/06/02 07:00:04;;;;;;;2.95;1.20;;;;;;;;;;4252266;27;20130;-84
2022/06/02 07:02:18;;;;;;;2.90;1.10;;;;;;;;;;4253779;27;20074;-84
2022/06/02 07:04:19;;;;;;;3.65;1.20;;;;;;;;;;4252623;27;20050;-84
2022/06/02 07:06:38;;;;;;;1.67;0.95;;;13.80;99.90;;;;;;4252586;27;20395;-84
2022/06/02 07:08:53;;;;;;;;;;;13.90;99.90;;;;;;4254304;27;20043;-84
2022/06/02 07:13:48;;;;;;;5.97;2.60;;;14.00;99.90;;;;;;4234806;28;20059;-84
2022/06/02 07:15:54;;;;;;;2.10;1.02;;;;;;;;;;4252628;27;20104;-84
2022/06/02 07:18:00;;;;;;;3.85;1.10;;;;;;;;;;4234426;28;20079;-84
2022/06/02 07:20:04;;;;;;;3.30;1.25;;;;;;;;;;4251963;27;20078;-84
2022/06/02 07:22:24;;;;;;;1.30;0.95;;;;;;;;;;4252027;27;20481;-84
2022/06/02 07:24:44;;;;;;;3.75;1.02;;;;;;;;;;4250218;27;20095;-84
2022/06/02 07:26:57;;;;;;;3.03;0.90;;;;;;;;;;4251652;27;20394;-84
2022/06/02 07:29:12;;;;;;;3.28;1.00;;;;;;;;;;4233808;28;20542;-84
2022/06/02 07:31:42;;;;;;;4.85;1.05;;;;;;;;;;4251068;27;20039;-84
2022/06/02 07:33:52;;;;;;;3.25;0.98;;;;;;;;;;4198581;28;20052;-84
2022/06/02 07:36:03;;;;;;;4.03;1.10;;;;;;;;;;4252748;27;20577;-84
2022/06/02 07:38:07;;;;;;;3.38;1.40;;;;;;;;;;4252694;27;20509;-83
2022/06/02 07:40:18;;;;;;;3.35;0.95;;;;;;;;;;4233940;28;20131;-83
2022/06/02 07:42:19;;;;;;;2.15;1.00;;;;;;;;;;4252822;27;20425;-84
2022/06/02 07:44:22;;;;;;;2.50;1.05;;;;;;;;;;4233625;28;20047;-84
2022/06/02 07:46:23;;;;;;;1.48;1.00;;;;;;;;;;4252560;27;20046;-84
2022/06/02 07:48:39;;;;;;;1.75;0.98;;;;;;;;;;4251392;27;20376;-84
2022/06/02 07:50:52;;;;;;;4.70;1.02;;;;;;;;;;4251875;27;20043;-84
2022/06/02 07:52:55;;;;;;;2.88;1.27;;;;;;;;;;4252918;27;20043;-83
2022/06/02 07:55:18;;;;;;;3.53;0.80;;;;;;;;;;4251739;27;20442;-83
2022/06/02 07:57:32;;;;;;;5.38;1.10;;;;;;;;;;4253642;27;20069;-83
2022/06/02 07:59:42;;;;;;;3.25;1.80;;;;;;;;;;4235510;28;20044;-83
2022/06/02 08:02:06;;;;;;;2.05;1.00;;;;;;;;;;4253356;27;20075;-84
2022/06/02 08:04:18;;;;;;;1.20;1.00;;;14.00;99.90;;;;;;4253296;27;20054;-84
2022/06/02 08:06:51;;;;;;;3.17;1.17;;;15.10;98.10;;;;;;4255330;27;20127;-84
2022/06/02 08:08:52;;;;;;;2.03;1.10;;;;;;;;;;4235981;28;20051;-84
2022/06/02 08:10:53;;;;;;;6.00;0.90;;;;;;;;;;4255096;27;20046;-84
2022/06/02 08:13:12;;;;;;;3.90;1.35;;;;;;;;;;4256914;27;20066;-84
2022/06/02 08:15:16;;;;;;;1.05;0.93;;;;;;;;;;4258728;27;20118;-84
2022/06/02 08:17:28;;;;;;;5.03;1.20;;;15.30;97.70;;;;;;4255718;27;20483;-84
2022/06/02 08:19:32;;;;;;;6.15;1.00;;;;;;;;;;4260244;27;20035;-84
2022/06/02 08:21:40;;;;;;;3.40;1.20;;;15.50;97.60;;;;;;4259404;27;20058;-84
2022/06/02 08:24:08;;;;;;;4.65;1.13;;;15.70;97.20;;;;;;4256842;27;20043;-84
2022/06/02 08:26:23;;;;;;;2.83;1.47;;;;;;;;;;4254669;27;20089;-83
2022/06/02 08:28:44;;;;;;;2.20;0.95;;;;;;;;;;4253343;27;20039;-83
2022/06/02 08:30:54;;;;;;;3.28;0.98;;;;;;;;;;4251759;27;20047;-83
2022/06/02 08:33:15;;;;;;;1.30;0.95;;;;;;;;;;4235803;28;20055;-83
2022/06/02 08:35:26;;;;;;;2.85;0.77;;;;;;;;;;4240737;27;20058;-83
2022/06/02 08:37:58;;;;;;;5.10;1.77;;;15.70;97.00;;;;;;4256051;27;20043;-83
2022/06/02 08:40:10;;;;;;;1.95;1.17;;;15.90;96.40;;;;;;4258155;27;20035;-84
2022/06/02 08:42:23;;;;;;;2.63;0.77;;;16.00;95.50;;;;;;4254896;27;20046;-84
2022/06/02 08:45:03;;;;;;;1.17;0.80;;;16.00;95.80;;;;;;4257350;27;20042;-84
2022/06/02 08:47:26;;;;;;;2.03;0.90;;;15.90;95.70;;;;;;4256651;27;20068;-84
2022/06/02 08:49:41;;;;;;;1.58;0.85;;;15.80;95.60;;;;;;4256662;27;20062;-84
2022/06/02 08:51:46;;;;;;;1.70;0.95;;;15.80;95.40;;;;;;4239503;28;20055;-83
2022/06/02 08:54:05;;;;;;;2.05;1.35;;;15.90;95.50;;;;;;4257699;27;20050;-83
2022/06/02 08:56:43;;;;;;;1.88;0.80;;;16.00;95.00;;;;;;4257821;27;20059;-83
2022/06/02 08:59:04;;;;;;;3.43;1.07;;;16.00;95.10;;;;;;4259808;27;20045;-83
2022/06/02 09:01:31;;;;;;;1.58;0.85;;;16.10;95.20;;;;;;4258756;27;20123;-83
2022/06/02 09:04:05;;;;;;;2.75;1.45;;;16.20;95.30;;;;;;4258455;27;20513;-83
2022/06/02 09:06:41;;;;;;;4.43;0.88;;;16.40;95.30;;;;;;4259131;27;20109;-83
2022/06/02 09:09:20;;;;;;;2.60;0.77;;;17.00;94.40;;;;;;4250083;27;20106;-83
2022/06/02 09:12:09;;;;;;;2.63;0.80;;;17.60;93.70;;;;;;4257363;27;20043;-83
2022/06/02 09:14:30;;;;;;;1.27;0.70;;;18.00;92.40;;;;;;4230384;27;20051;-83
2022/06/02 09:16:58;;;;;;;4.75;0.85;;;18.30;92.30;;;;;;4259995;27;20061;-83
2022/06/02 09:19:14;;;;;;;1.45;0.63;;;18.90;91.90;;;;;;4230338;27;20055;-83
2022/06/02 09:21:21;;;;;;;1.33;0.60;;;;;;;;;;4252030;27;20126;-83
2022/06/02 09:23:39;;;;;;;3.50;1.00;;;19.10;90.60;;;;;;4252298;28;20042;-83
2022/06/02 09:25:43;;;;;;;2.63;0.93;;;19.10;90.30;;;;;;4251373;28;20491;-84
2022/06/02 09:28:06;;;;;;;3.10;0.90;;;19.00;91.50;;;;;;4252601;28;20072;-83
2022/06/02 09:30:13;;;;;;;1.35;0.75;;;18.90;91.10;;;;;;4257709;27;20043;-83
2022/06/02 09:32:41;;;;;;;2.60;1.02;;;19.00;91.80;;;;;;4262801;27;20058;-83
2022/06/02 09:35:02;;;;;;;2.58;0.80;;;19.10;91.30;;;;;;4261516;27;20046;-83
2022/06/02 09:37:39;;;;;;;0.73;0.73;;;19.20;91.10;;;;;;4238179;28;20039;-84
2022/06/02 09:40:07;;;;;;;3.80;0.80;;;19.20;90.10;;;;;;4257872;27;20087;-83
2022/06/02 09:42:27;;;;;;;1.98;0.80;;;19.20;89.80;;;;;;4256836;27;20039;-83
2022/06/02 09:44:32;;;;;;;0.75;0.70;;;19.20;90.90;;;;;;4255049;27;20500;-83
2022/06/02 09:46:53;;;;;;;2.08;0.95;;;19.10;90.20;;;;;;4257936;27;20062;-83
2022/06/02 09:49:08;;;;;;;3.80;0.95;;;19.00;86.10;;;;;;4238074;28;20479;-83
2022/06/02 09:51:14;;;;;;;3.50;1.05;;;18.90;88.90;;;;;;4258205;27;20039;-84
2022/06/02 09:53:36;;;;;;;1.85;0.95;;;18.80;88.90;;;;;;4256829;27;20451;-83
2022/06/02 09:55:49;;;;;;;3.25;0.88;;;18.80;88.90;;;;;;4257158;27;20074;-82
2022/06/02 09:58:08;;;;;;;2.22;1.00;;;19.30;89.20;;;;;;4255348;27;20085;-83
2022/06/02 10:00:53;;;;;;;2.95;0.80;;;19.70;88.40;;;;;;4257185;27;20054;-84
2022/06/02 10:03:00;;;;;;;2.38;1.02;;;20.20;85.80;;;;;;4206024;27;20071;-83
2022/06/02 10:05:33;;;;;;;1.77;0.90;;;20.60;84.30;;;;;;4254045;27;20513;-84
2022/06/02 10:07:42;;;;;;;2.10;0.80;;;20.80;81.40;;;;;;4254638;27;20499;-83
2022/06/02 10:10:00;;;;;;;4.32;0.98;;;20.80;83.30;;;;;;4254568;27;20081;-84
2022/06/02 10:14:47;;;;;;;3.78;1.05;;;20.80;82.40;;;;;;4253081;27;20495;-83
2022/06/02 10:17:12;;;;;;;2.67;0.82;;;20.80;84.40;;;;;;4254526;27;20490;-84
2022/06/02 10:19:40;;;;;;;3.95;0.77;;;21.00;82.90;;;;;;4253460;27;20082;-84
2022/06/02 10:22:14;;;;;;;2.22;0.70;;;21.10;83.30;;;;;;4253454;27;20058;-82
2022/06/02 10:24:48;;;;;;;2.40;1.00;;;21.20;78.90;;;;;;4252777;27;20460;-84
2022/06/02 10:27:12;;;;;;;3.75;1.65;;;21.50;78.90;;;;;;4252948;27;20448;-84
2022/06/02 10:29:55;;;;;;;3.10;1.25;;;21.50;79.00;;;;;;4252639;27;20043;-84
2022/06/02 10:32:20;;;;;;;3.25;1.27;;;21.50;74.70;;;;;;4254434;27;20072;-84
2022/06/02 10:34:46;;;;;;;1.13;0.88;;;21.80;77.00;;;;;;4253420;27;20039;-84
2022/06/02 10:37:14;;;;;;;1.73;0.65;;;21.90;77.00;;;;;;4253465;27;20043;-85
2022/06/02 10:39:18;;;;;;;1.55;0.90;;;22.00;75.20;;;;;;4252611;27;20047;-84
2022/06/02 10:41:46;;;;;;;3.00;0.98;;;22.10;75.80;;;;;;4251596;27;20051;-84
2022/06/02 10:44:13;;;;;;;2.35;0.93;;;22.00;74.30;;;;;;4217392;28;20067;-84
2022/06/02 10:46:39;;;;;;;1.95;0.75;;;22.00;76.10;;;;;;4252185;27;20487;-84
2022/06/02 10:49:07;;;;;;;5.65;1.00;;;22.30;73.80;;;;;;4251851;27;20050;-84
2022/06/02 10:51:19;;;;;;;4.32;1.00;;;22.20;73.00;;;;;;4230360;28;20083;-84
2022/06/02 10:53:41;;;;;;;3.58;0.80;;;21.90;74.70;;;;;;4252332;27;20064;-83
2022/06/02 10:56:20;;;;;;;5.82;1.02;;;21.80;74.70;;;;;;4251578;27;20035;-83
2022/06/02 10:58:54;;;;;;;3.08;0.75;;;21.70;74.10;;;;;;4233484;28;20443;-83
2022/06/02 11:01:20;;;;;;;1.63;1.00;;;21.80;73.30;;;;;;4233090;28;20416;-83
2022/06/02 11:03:41;;;;;;;2.65;0.90;;;22.00;72.70;;;;;;4251692;27;20475;-83
2022/06/02 11:06:21;;;;;;;3.13;1.10;;;22.10;71.60;;;;;;4251090;27;20052;-83
2022/06/02 11:08:59;;;;;;;2.47;0.77;;;22.30;69.80;;;;;;4251574;27;20114;-84
2022/06/02 11:11:35;;;;;;;1.85;1.00;;;22.60;70.30;;;;;;4250831;27;20066;-84
2022/06/02 11:14:03;;;;;;;4.43;0.90;;;22.90;71.30;;;;;;4252839;27;20047;-83
2022/06/02 11:16:35;;;;;;;2.95;1.08;;;23.20;68.70;;;;;;4263043;27;20047;-84
2022/06/02 11:19:05;;;;;;;4.78;1.05;;;23.50;69.40;;;;;;4253973;27;20055;-83
2022/06/02 11:21:18;;;;;;;2.95;0.90;;;23.50;68.40;;;;;;4257800;27;20394;-84
2022/06/02 11:23:40;;;;;;;3.15;0.95;;;23.10;67.90;;;;;;4263186;27;20094;-84
2022/06/02 11:26:18;;;;;;;1.83;0.90;;;22.90;68.30;;;;;;4256108;27;20047;-84
2022/06/02 11:28:24;;;;;;;1.43;0.70;;;23.10;65.40;;;;;;4250896;27;20045;-84
2022/06/02 11:30:32;;;;;;;3.75;1.00;;;;;;;;;;4250424;27;20050;-83
2022/06/02 11:32:53;;;;;;;1.70;0.82;;;23.10;68.20;;;;;;4231515;28;20051;-83
2022/06/02 11:35:21;;;;;;;2.65;1.00;;;23.60;67.20;;;;;;4250656;27;20136;-83
2022/06/02 11:38:04;;;;;;;2.53;1.10;;;24.00;65.60;;;;;;4250322;27;20045;-84
2022/06/02 11:40:42;;;;;;;2.72;0.90;;;24.40;64.10;;;;;;4230636;28;20070;-83
2022/06/02 11:43:10;;;;;;;3.30;0.95;;;24.50;63.50;;;;;;4249831;27;20144;-83
2022/06/02 11:45:54;;;;;;;2.10;0.75;;;24.60;62.30;;;;;;4249078;27;20114;-84
2022/06/02 11:48:20;;;;;;;3.75;0.80;;;24.70;63.00;;;;;;4235007;27;20123;-84
2022/06/02 11:50:55;;;;;;;2.70;0.90;;;25.10;64.10;;;;;;4249615;27;20039;-84
2022/06/02 11:53:04;;;;;;;2.20;1.15;;;25.30;59.90;;;;;;4249608;27;20477;-84
2022/06/02 11:55:08;;;;;;;;;;;24.90;62.70;;;;;;4249408;27;20054;-84
2022/06/02 11:57:20;;;;;;;3.33;1.00;;;24.70;60.30;;;;;;4249767;27;20010;-84
2022/06/02 11:59:30;;;;;;;2.28;1.00;;;24.80;61.90;;;;;;4249649;27;20043;-84
2022/06/02 12:01:47;;;;;;;1.15;0.60;;;25.00;62.50;;;;;;4249326;27;20039;-84
2022/06/02 12:04:06;;;;;;;2.03;0.80;;;25.00;60.50;;;;;;4249267;27;20092;-84
2022/06/02 12:06:28;;;;;;;1.98;0.77;;;25.10;62.30;;;;;;4249768;27;20494;-84
2022/06/02 12:08:44;;;;;;;3.28;1.00;;;25.40;60.10;;;;;;4249368;27;20073;-84
2022/06/02 12:11:13;;;;;;;2.60;0.95;;;25.50;60.00;;;;;;4249896;27;20061;-84
2022/06/02 12:13:33;;;;;;;1.48;0.82;;;25.70;59.20;;;;;;4248453;27;20043;-84
2022/06/02 12:16:03;;;;;;;2.20;0.77;;;25.50;57.50;;;;;;4248528;27;20043;-85
2022/06/02 12:18:28;;;;;;;1.05;0.50;;;25.50;57.40;;;;;;4230622;28;20047;-84
2022/06/02 12:20:53;;;;;;;1.17;0.50;;;25.60;58.20;;;;;;4248583;27;20095;-84
2022/06/02 12:23:17;;;;;;;1.58;1.13;;;25.90;58.00;;;;;;4230094;28;20079;-84
2022/06/02 12:25:31;;;;;;;1.90;0.98;;;26.10;55.90;;;;;;4230157;28;20070;-84
2022/06/02 12:27:41;;;;;;;5.13;1.42;;;26.10;55.50;;;;;;4229526;28;20047;-84
2022/06/02 12:30:00;;;;;;;1.60;0.90;;;26.10;56.30;;;;;;4230065;28;20035;-84
2022/06/02 12:32:12;;;;;;;2.47;0.90;;;26.30;56.30;;;;;;4248189;27;20050;-84
2022/06/02 12:34:31;;;;;;;1.55;0.70;;;26.40;56.70;;;;;;4248514;27;20043;-84
2022/06/02 12:36:46;;;;;;;1.60;0.70;;;26.50;55.60;;;;;;4248288;27;20054;-85
2022/06/02 12:39:25;;;;;;;1.33;0.73;;;26.60;56.00;;;;;;4248033;27;20047;-84